Time;durP1;ratioP1;P1;durP2;ratioP2;P2;SDS_P1;SDS_P2;PMS_P1;PMS_P2;Temp;Humidity;BMP_temperature;BMP_pressure;BME280_temperature;BME280_humidity;BME280_pressure;Samples;Min_cycle;Max_cycle;Signal;HPM_P1;HPM_P2
2022/04/04 00:01:51;;;;;;;21.13;17.93;;;1.70;1.00;;;;;;5070613;28;20209;-73
2022/04/04 00:04:18;;;;;;;22.50;20.07;;;1.70;1.00;;;;;;5070364;28;20723;-72
2022/04/04 00:06:45;;;;;;;27.77;22.10;;;1.60;1.00;;;;;;5070794;28;20251;-72
2022/04/04 00:09:12;;;;;;;25.80;20.57;;;1.70;1.00;;;;;;5069949;28;20229;-71
2022/04/04 00:11:39;;;;;;;27.50;22.10;;;1.70;1.00;;;;;;5070671;28;20202;-71
2022/04/04 00:14:06;;;;;;;24.40;20.57;;;1.60;1.00;;;;;;5070901;28;20626;-74
2022/04/04 00:16:33;;;;;;;26.60;19.37;;;1.60;1.00;;;;;;5070619;28;20673;-72
2022/04/04 00:19:02;;;;;;;34.37;23.97;;;1.60;1.00;;;;;;5070614;28;20206;-72
2022/04/04 00:21:29;;;;;;;32.10;24.27;;;1.60;1.00;;;;;;5070399;28;20203;-70
2022/04/04 00:23:56;;;;;;;29.90;22.17;;;1.50;1.00;;;;;;5059173;28;20563;-70
2022/04/04 00:26:23;;;;;;;31.23;22.30;;;1.60;1.00;;;;;;5050098;28;20276;-70
2022/04/04 00:28:50;;;;;;;23.93;17.50;;;1.50;1.00;;;;;;5050407;28;20231;-70
2022/04/04 00:31:17;;;;;;;20.57;16.40;;;1.30;1.00;;;;;;5049943;28;20209;-69
2022/04/04 00:33:44;;;;;;;22.03;15.90;;;1.50;1.00;;;;;;5050443;28;20260;-70
2022/04/04 00:36:13;;;;;;;21.00;16.70;;;1.70;1.00;;;;;;5050234;28;20234;-71
2022/04/04 00:38:40;;;;;;;24.83;18.73;;;1.70;1.00;;;;;;5050258;28;20207;-71
2022/04/04 00:41:11;;;;;;;27.00;18.30;;;1.60;1.00;;;;;;5050656;28;20248;-71
2022/04/04 00:43:38;;;;;;;21.27;15.53;;;1.60;1.00;;;;;;5050783;28;20717;-71
2022/04/04 00:46:05;;;;;;;20.53;14.07;;;1.70;1.00;;;;;;5050814;28;20203;-71
2022/04/04 00:48:33;;;;;;;24.60;16.00;;;1.70;1.00;;;;;;5049953;28;20288;-71
2022/04/04 00:51:00;;;;;;;21.77;15.10;;;1.80;1.00;;;;;;5050454;28;20265;-71
2022/04/04 00:53:29;;;;;;;20.43;15.27;;;1.80;1.00;;;;;;5049662;28;20244;-71
2022/04/04 00:55:56;;;;;;;17.83;13.17;;;1.90;1.00;;;;;;5050152;28;20203;-73
2022/04/04 00:58:24;;;;;;;20.80;13.50;;;1.80;1.00;;;;;;5052649;28;20211;-71
2022/04/04 01:00:52;;;;;;;18.50;13.77;;;1.80;1.00;;;;;;5053963;28;20241;-70
2022/04/04 01:03:19;;;;;;;23.17;13.63;;;1.80;1.00;;;;;;5053665;28;20203;-71
2022/04/04 01:05:46;;;;;;;17.13;13.00;;;1.60;1.00;;;;;;5053824;28;20206;-71
2022/04/04 01:08:14;;;;;;;19.40;13.77;;;1.70;1.00;;;;;;5053092;28;20211;-71
2022/04/04 01:10:43;;;;;;;18.40;14.00;;;1.60;1.00;;;;;;5054179;28;20203;-71
2022/04/04 01:13:11;;;;;;;18.73;12.47;;;1.50;1.00;;;;;;5053594;28;20207;-69
2022/04/04 01:15:38;;;;;;;17.13;13.67;;;1.50;1.00;;;;;;5053927;28;20256;-69
2022/04/04 01:18:06;;;;;;;15.57;12.63;;;1.60;1.00;;;;;;5053957;28;20203;-72
2022/04/04 01:20:33;;;;;;;19.37;13.67;;;1.50;1.00;;;;;;5053293;28;20207;-73
2022/04/04 01:23:00;;;;;;;19.70;15.03;;;1.50;1.00;;;;;;5053412;28;20249;-72
2022/04/04 01:25:30;;;;;;;21.03;14.63;;;1.50;1.00;;;;;;5053362;28;20203;-72
2022/04/04 01:27:58;;;;;;;18.10;13.23;;;1.50;1.00;;;;;;5053720;28;20583;-72
2022/04/04 01:30:26;;;;;;;17.53;13.60;;;1.50;1.00;;;;;;5053050;28;20238;-72
2022/04/04 01:32:54;;;;;;;22.20;14.30;;;1.40;1.00;;;;;;5053478;28;20211;-72
2022/04/04 01:35:21;;;;;;;19.47;14.70;;;1.40;1.00;;;;;;5052721;28;20254;-72
2022/04/04 01:37:49;;;;;;;21.03;14.07;;;1.40;1.00;;;;;;5053591;28;20272;-73
2022/04/04 01:40:16;;;;;;;15.83;13.40;;;1.30;1.00;;;;;;5053143;28;20202;-72
2022/04/04 01:42:48;;;;;;;18.03;13.90;;;1.30;1.00;;;;;;5053307;28;20635;-71
2022/04/04 01:45:15;;;;;;;21.97;13.73;;;1.30;1.00;;;;;;5052797;28;20290;-72
2022/04/04 01:47:42;;;;;;;15.77;10.77;;;1.20;1.00;;;;;;5053187;28;20202;-71
2022/04/04 01:50:10;;;;;;;16.60;11.80;;;1.30;1.00;;;;;;5052812;28;20304;-71
2022/04/04 01:52:37;;;;;;;19.10;12.97;;;1.30;1.00;;;;;;5053544;28;20259;-72
2022/04/04 01:55:04;;;;;;;16.20;12.03;;;1.30;1.00;;;;;;5053227;28;20589;-71
2022/04/04 01:57:33;;;;;;;18.03;12.20;;;1.10;1.00;;;;;;5052387;28;20210;-72
2022/04/04 02:00:02;;;;;;;16.90;11.87;;;1.00;1.00;;;;;;5053038;28;20202;-69
2022/04/04 02:02:29;;;;;;;15.83;12.77;;;1.00;1.00;;;;;;5052523;28;20256;-71
2022/04/04 02:04:56;;;;;;;20.97;15.33;;;1.20;1.00;;;;;;5052841;28;20642;-72
2022/04/04 02:07:23;;;;;;;18.40;13.30;;;1.20;1.00;;;;;;5052000;28;20203;-72
2022/04/04 02:09:49;;;;;;;20.00;13.00;;;1.30;1.00;;;;;;5052642;28;20296;-71
2022/04/04 02:12:16;;;;;;;19.97;12.10;;;1.30;1.00;;;;;;5052448;28;20203;-71
2022/04/04 02:14:43;;;;;;;14.47;11.33;;;1.30;1.00;;;;;;5052670;28;20207;-71
2022/04/04 02:17:12;;;;;;;14.63;10.57;;;1.30;1.00;;;;;;5052130;28;20211;-71
2022/04/04 02:19:39;;;;;;;14.73;10.77;;;1.30;1.00;;;;;;5052526;28;20222;-71
2022/04/04 02:22:06;;;;;;;15.33;12.53;;;1.20;1.00;;;;;;5052785;28;20744;-72
2022/04/04 02:24:33;;;;;;;16.53;10.40;;;1.20;1.00;;;;;;5052425;28;20272;-71
2022/04/04 02:27:00;;;;;;;15.27;10.60;;;1.20;1.00;;;;;;5052378;28;20662;-71
2022/04/04 02:29:27;;;;;;;13.50;10.73;;;1.20;1.00;;;;;;5051760;28;20223;-71
2022/04/04 02:31:54;;;;;;;15.77;10.43;;;1.20;1.00;;;;;;5052254;28;20272;-71
2022/04/04 02:34:22;;;;;;;17.40;10.73;;;1.20;1.00;;;;;;5051893;28;20623;-71
2022/04/04 02:36:49;;;;;;;9.60;8.67;;;1.20;1.00;;;;;;5052410;28;20207;-71
2022/04/04 02:39:16;;;;;;;13.90;9.70;;;1.10;1.00;;;;;;5051891;28;20207;-71
2022/04/04 02:41:43;;;;;;;12.73;10.60;;;0.90;1.00;;;;;;5052041;28;20257;-71
2022/04/04 02:44:10;;;;;;;11.77;9.10;;;1.00;1.00;;;;;;5051787;28;20211;-71
2022/04/04 02:46:37;;;;;;;10.63;8.13;;;0.90;1.00;;;;;;5052231;28;20210;-72
2022/04/04 02:49:04;;;;;;;12.80;11.30;;;1.00;1.00;;;;;;5051909;28;20233;-71
2022/04/04 02:51:33;;;;;;;10.77;8.77;;;1.00;1.00;;;;;;5051706;28;20215;-71
2022/04/04 02:54:00;;;;;;;12.93;9.70;;;1.00;1.00;;;;;;5051858;28;20230;-71
2022/04/04 02:56:29;;;;;;;12.90;9.37;;;1.00;1.00;;;;;;5051525;28;20198;-70
2022/04/04 02:58:57;;;;;;;12.83;10.50;;;0.90;1.00;;;;;;5051636;28;20306;-70
2022/04/04 03:01:24;;;;;;;13.17;8.80;;;0.90;1.00;;;;;;5051549;28;20207;-71
2022/04/04 03:03:51;;;;;;;9.03;7.87;;;0.90;1.00;;;;;;5051654;28;20264;-70
2022/04/04 03:06:18;;;;;;;13.10;9.00;;;1.00;1.00;;;;;;5051339;28;20272;-70
2022/04/04 03:08:47;;;;;;;15.57;9.93;;;1.00;1.00;;;;;;5051695;28;20256;-70
2022/04/04 03:11:14;;;;;;;12.03;9.30;;;1.00;1.00;;;;;;5051081;28;20242;-70
2022/04/04 03:13:41;;;;;;;15.83;9.47;;;0.90;1.00;;;;;;5051407;28;20209;-72
2022/04/04 03:16:08;;;;;;;12.87;8.93;;;1.00;1.00;;;;;;5051949;28;20207;-70
2022/04/04 03:18:35;;;;;;;11.57;9.10;;;1.00;1.00;;;;;;5051362;28;20210;-71
2022/04/04 03:21:03;;;;;;;12.87;9.33;;;0.90;1.00;;;;;;5050791;28;20626;-70
2022/04/04 03:23:30;;;;;;;12.40;9.00;;;0.90;1.00;;;;;;5050945;28;20255;-69
2022/04/04 03:25:59;;;;;;;11.67;9.00;;;0.90;1.00;;;;;;5051236;28;20207;-69
2022/04/04 03:28:28;;;;;;;13.43;9.07;;;0.80;1.00;;;;;;5053901;28;20259;-68
2022/04/04 03:30:55;;;;;;;14.00;10.27;;;0.80;1.00;;;;;;5070360;28;20617;-67
2022/04/04 03:33:22;;;;;;;12.90;9.30;;;0.70;1.00;;;;;;5070044;28;20677;-67
2022/04/04 03:35:49;;;;;;;13.00;10.10;;;0.70;1.00;;;;;;5070800;28;20210;-67
2022/04/04 03:38:17;;;;;;;13.60;9.53;;;0.60;1.00;;;;;;5070087;28;20210;-68
2022/04/04 03:40:45;;;;;;;13.07;9.03;;;0.40;1.00;;;;;;5071115;28;20256;-68
2022/04/04 03:43:14;;;;;;;13.03;9.33;;;0.30;1.00;;;;;;5070540;28;20225;-68
2022/04/04 03:45:41;;;;;;;13.63;10.07;;;0.30;1.00;;;;;;5070539;28;20214;-68
2022/04/04 03:48:08;;;;;;;12.60;8.93;;;0.30;1.00;;;;;;5070819;28;20211;-69
2022/04/04 03:50:36;;;;;;;12.73;9.87;;;0.60;1.00;;;;;;5070918;28;20230;-68
2022/04/04 03:53:04;;;;;;;11.33;8.43;;;0.60;1.00;;;;;;5070772;28;20205;-68
2022/04/04 03:55:36;;;;;;;10.13;8.67;;;0.60;1.00;;;;;;5069913;28;20202;-68
2022/04/04 03:58:03;;;;;;;11.03;8.83;;;0.60;1.00;;;;;;5070560;28;20227;-67
2022/04/04 04:00:32;;;;;;;11.90;8.77;;;0.70;1.00;;;;;;5069937;28;20209;-68
2022/04/04 04:02:59;;;;;;;11.00;8.80;;;0.70;1.00;;;;;;5070449;28;20210;-67
2022/04/04 04:05:26;;;;;;;13.97;8.87;;;0.60;1.00;;;;;;5069873;28;20262;-69
2022/04/04 04:07:53;;;;;;;14.30;10.37;;;0.50;1.00;;;;;;5070608;28;20255;-70
2022/04/04 04:10:21;;;;;;;13.77;9.47;;;0.70;1.00;;;;;;5069714;28;20242;-70
2022/04/04 04:12:49;;;;;;;13.77;10.03;;;0.80;1.00;;;;;;5070347;28;20207;-71
2022/04/04 04:15:17;;;;;;;17.47;9.50;;;0.70;1.00;;;;;;5069619;28;20210;-70
2022/04/04 04:17:46;;;;;;;10.50;8.73;;;0.70;1.00;;;;;;5070482;28;20202;-70
2022/04/04 04:20:23;;;;;;;13.80;9.70;;;0.60;1.00;;;;;;5069978;28;20567;-71
2022/04/04 04:22:52;;;;;;;14.20;9.60;;;0.50;1.00;;;;;;5070341;28;20213;-71
2022/04/04 04:25:20;;;;;;;11.80;8.10;;;0.40;1.00;;;;;;5069787;28;20682;-71
2022/04/04 04:27:47;;;;;;;11.13;9.13;;;0.50;1.00;;;;;;5070175;28;20729;-72
2022/04/04 04:30:16;;;;;;;11.10;8.97;;;0.60;1.00;;;;;;5068801;28;20729;-70
2022/04/04 04:32:48;;;;;;;13.67;10.10;;;0.50;1.00;;;;;;5073917;28;20208;-70
2022/04/04 04:35:15;;;;;;;12.37;8.87;;;0.50;1.00;;;;;;5073526;28;20298;-71
2022/04/04 04:37:43;;;;;;;13.03;9.20;;;0.50;1.00;;;;;;5074226;28;20623;-69
2022/04/04 04:40:11;;;;;;;15.37;9.10;;;0.50;1.00;;;;;;5074026;28;20700;-67
2022/04/04 04:42:38;;;;;;;14.03;9.33;;;0.50;1.00;;;;;;5074280;28;20760;-69
2022/04/04 04:45:07;;;;;;;10.70;9.07;;;0.50;1.00;;;;;;5073892;28;20211;-69
2022/04/04 04:47:35;;;;;;;11.40;9.63;;;0.50;1.00;;;;;;5073810;28;20206;-70
2022/04/04 04:50:05;;;;;;;10.00;8.40;;;0.40;1.00;;;;;;5073880;28;20766;-68
2022/04/04 04:52:32;;;;;;;15.10;10.53;;;0.50;1.00;;;;;;5073095;28;20203;-71
2022/04/04 04:55:00;;;;;;;15.43;9.27;;;0.50;1.00;;;;;;5073687;28;20673;-70
2022/04/04 04:57:28;;;;;;;14.00;9.07;;;0.60;1.00;;;;;;5072737;28;20305;-70
2022/04/04 04:59:55;;;;;;;15.40;10.67;;;0.40;1.00;;;;;;5073516;28;20267;-69
2022/04/04 05:02:22;;;;;;;13.43;9.23;;;0.30;1.00;;;;;;5073324;28;20209;-68
2022/04/04 05:04:49;;;;;;;12.07;9.53;;;0.40;1.00;;;;;;5073589;28;20207;-69
2022/04/04 05:07:18;;;;;;;13.67;11.23;;;0.50;1.00;;;;;;5073312;28;20203;-68
2022/04/04 05:09:45;;;;;;;12.83;10.67;;;0.50;1.00;;;;;;5073553;28;20299;-69
2022/04/04 05:12:12;;;;;;;18.33;10.13;;;0.50;1.00;;;;;;5072821;28;20202;-68
2022/04/04 05:14:40;;;;;;;15.90;10.90;;;0.50;1.00;;;;;;5073477;28;20221;-69
2022/04/04 05:17:07;;;;;;;14.00;10.37;;;0.40;1.00;;;;;;5073973;28;20212;-68
2022/04/04 05:19:34;;;;;;;14.03;10.70;;;0.40;1.00;;;;;;5073347;28;20232;-68
2022/04/04 05:22:01;;;;;;;11.53;8.97;;;0.40;1.00;;;;;;5073320;28;20674;-69
2022/04/04 05:24:30;;;;;;;13.30;10.40;;;0.50;1.00;;;;;;5072748;28;20267;-68
2022/04/04 05:26:57;;;;;;;13.70;9.60;;;0.50;1.00;;;;;;5073475;28;20658;-67
2022/04/04 05:29:26;;;;;;;11.83;9.37;;;0.50;1.00;;;;;;5072308;28;20665;-68
2022/04/04 05:31:54;;;;;;;12.57;9.10;;;0.50;1.00;;;;;;5073519;28;20328;-68
2022/04/04 05:34:22;;;;;;;12.37;9.83;;;0.50;1.00;;;;;;5072802;28;20209;-69
2022/04/04 05:36:49;;;;;;;14.07;9.57;;;0.50;1.00;;;;;;5073235;28;20705;-69
2022/04/04 05:39:16;;;;;;;12.57;9.63;;;0.50;1.00;;;;;;5072487;28;20215;-69
2022/04/04 05:41:46;;;;;;;13.03;9.37;;;0.50;1.00;;;;;;5072967;28;20210;-68
2022/04/04 05:44:13;;;;;;;17.03;8.93;;;0.40;1.00;;;;;;5071787;28;20213;-68
2022/04/04 05:46:40;;;;;;;12.30;9.60;;;0.40;1.00;;;;;;5072360;28;20548;-69
2022/04/04 05:49:07;;;;;;;11.87;8.27;;;0.50;1.00;;;;;;5072229;28;20204;-69
2022/04/04 05:51:34;;;;;;;16.47;9.40;;;0.90;1.00;;;;;;5072885;28;20225;-67
2022/04/04 05:54:02;;;;;;;14.97;9.63;;;1.10;1.00;;;;;;5072972;28;20213;-68
2022/04/04 05:56:30;;;;;;;12.17;9.87;;;1.00;1.00;;;;;;5072386;28;20696;-67
2022/04/04 05:58:58;;;;;;;13.77;9.83;;;0.80;1.00;;;;;;5071514;28;20313;-67
2022/04/04 06:01:25;;;;;;;12.47;9.80;;;0.70;1.00;;;;;;5072314;28;20213;-66
2022/04/04 06:03:52;;;;;;;13.23;9.17;;;0.70;1.00;;;;;;5069040;28;20206;-66
2022/04/04 06:06:19;;;;;;;14.63;10.67;;;0.80;1.00;;;;;;5069645;28;20251;-70
2022/04/04 06:08:46;;;;;;;11.07;8.43;;;0.80;1.00;;;;;;5071371;28;20263;-69
2022/04/04 06:11:13;;;;;;;13.17;11.07;;;0.90;1.00;;;;;;5070318;28;20229;-66
2022/04/04 06:13:40;;;;;;;14.90;9.20;;;0.80;1.00;;;;;;5071440;28;20257;-69
2022/04/04 06:16:09;;;;;;;16.10;10.63;;;0.70;1.00;;;;;;5070529;28;20289;-66
2022/04/04 06:18:36;;;;;;;13.17;10.20;;;0.80;1.00;;;;;;5070871;28;20209;-69
2022/04/04 06:21:03;;;;;;;16.80;11.13;;;0.70;1.00;;;;;;5072025;28;20221;-68
2022/04/04 06:23:33;;;;;;;16.00;11.30;;;0.80;1.00;;;;;;5071947;28;20215;-69
2022/04/04 06:26:01;;;;;;;14.10;11.60;;;0.90;1.00;;;;;;5068659;28;20692;-67
2022/04/04 06:28:31;;;;;;;14.60;11.53;;;1.20;1.00;;;;;;5070328;28;20199;-67
2022/04/04 06:30:58;;;;;;;19.67;11.20;;;1.40;1.00;;;;;;5072079;28;20238;-68
2022/04/04 06:33:27;;;;;;;15.07;12.30;;;1.50;1.00;;;;;;5070583;28;20221;-70
2022/04/04 06:35:55;;;;;;;17.23;11.13;;;1.60;1.00;;;;;;5068157;28;20208;-68
2022/04/04 06:38:22;;;;;;;17.90;11.40;;;1.70;1.00;;;;;;5065558;28;20210;-69
2022/04/04 06:40:51;;;;;;;15.23;12.10;;;1.70;1.00;;;;;;5068627;28;20206;-71
2022/04/04 06:43:19;;;;;;;13.00;10.07;;;1.70;1.00;;;;;;5071428;28;20206;-68
2022/04/04 06:45:46;;;;;;;15.63;11.33;;;1.60;1.00;;;;;;5052151;28;20210;-71
2022/04/04 06:48:13;;;;;;;17.47;12.47;;;1.60;1.00;;;;;;5051639;28;20629;-73
2022/04/04 06:50:42;;;;;;;14.47;11.50;;;1.60;1.00;;;;;;5052123;28;20227;-72
2022/04/04 06:53:10;;;;;;;19.03;11.40;;;1.80;1.00;;;;;;5052201;28;20202;-72
2022/04/04 06:55:38;;;;;;;18.83;12.43;;;2.10;1.00;;;;;;5071779;28;20212;-72
2022/04/04 06:58:05;;;;;;;14.80;10.77;;;2.20;1.00;;;;;;5071901;28;20596;-72
2022/04/04 07:00:32;;;;;;;16.67;12.57;;;2.40;1.00;;;;;;5067373;28;20249;-71
2022/04/04 07:02:59;;;;;;;12.47;9.23;;;2.40;1.00;;;;;;5059875;28;20211;-70
2022/04/04 07:05:26;;;;;;;12.70;9.93;;;2.50;1.00;;;;;;5071093;28;20218;-70
2022/04/04 07:07:55;;;;;;;14.70;10.20;;;2.60;1.00;;;;;;5070673;28;20203;-70
2022/04/04 07:10:22;;;;;;;13.33;10.47;;;2.70;1.00;;;;;;5068780;28;20548;-72
2022/04/04 07:12:49;;;;;;;15.97;11.57;;;2.80;1.00;;;;;;5071184;28;20213;-73
2022/04/04 07:15:16;;;;;;;16.13;9.80;;;2.90;1.00;;;;;;5071497;28;20206;-70
2022/04/04 07:17:44;;;;;;;16.07;11.60;;;3.00;1.00;;;;;;5068212;28;20206;-72
2022/04/04 07:20:12;;;;;;;13.00;9.27;;;3.20;1.00;;;;;;5063060;28;20638;-72
2022/04/04 07:22:40;;;;;;;12.93;10.90;;;3.10;1.00;;;;;;5069532;28;20591;-71
2022/04/04 07:25:10;;;;;;;13.63;10.67;;;3.10;1.00;;;;;;5062245;28;20202;-70
2022/04/04 07:27:39;;;;;;;21.67;12.33;;;3.20;1.00;;;;;;5070792;28;20271;-72
2022/04/04 07:30:08;;;;;;;17.70;11.77;;;3.20;1.00;;;;;;5070918;28;20213;-72
2022/04/04 07:32:36;;;;;;;15.90;11.47;;;3.40;1.00;;;;;;5069235;28;20233;-72
2022/04/04 07:35:04;;;;;;;15.57;10.53;;;3.70;1.00;;;;;;5065669;28;20210;-74
2022/04/04 07:37:31;;;;;;;13.93;10.33;;;3.70;1.00;;;;;;5066891;28;20657;-72
2022/04/04 07:39:58;;;;;;;14.70;11.00;;;3.60;1.00;;;;;;5067464;28;20210;-73
2022/04/04 07:42:27;;;;;;;17.70;11.10;;;3.70;1.00;;;;;;5067184;28;20301;-71
2022/04/04 07:44:54;;;;;;;16.03;10.20;;;3.80;1.00;;;;;;5069084;28;20206;-73
2022/04/04 07:47:21;;;;;;;14.13;9.93;;;4.00;1.00;;;;;;5069725;28;20260;-73
2022/04/04 07:49:48;;;;;;;13.20;10.77;;;4.00;1.00;;;;;;5068826;28;20248;-73
2022/04/04 07:52:15;;;;;;;15.03;11.67;;;4.00;1.00;;;;;;5063982;28;20318;-72
2022/04/04 07:54:42;;;;;;;14.90;9.80;;;4.20;1.00;;;;;;5069624;28;20210;-72
2022/04/04 07:57:10;;;;;;;13.93;10.00;;;4.20;1.00;;;;;;5069388;28;20222;-70
2022/04/04 07:59:38;;;;;;;17.30;11.83;;;4.30;1.00;;;;;;5069574;28;20208;-69
2022/04/04 08:02:05;;;;;;;13.67;10.87;;;4.40;1.00;;;;;;5071373;28;20198;-72
2022/04/04 08:04:32;;;;;;;17.40;11.17;;;4.50;1.00;;;;;;5070411;28;20655;-70
2022/04/04 08:07:00;;;;;;;17.30;11.47;;;4.50;1.00;;;;;;5070176;28;20206;-70
2022/04/04 08:09:27;;;;;;;22.53;11.33;;;4.60;1.00;;;;;;5069578;28;20626;-71
2022/04/04 08:11:55;;;;;;;15.43;11.03;;;4.70;1.00;;;;;;5070507;28;20238;-72
2022/04/04 08:14:22;;;;;;;18.30;11.77;;;4.80;1.00;;;;;;5070295;28;20231;-69
2022/04/04 08:16:51;;;;;;;18.27;11.97;;;5.00;1.00;;;;;;5070755;28;20280;-70
2022/04/04 08:19:19;;;;;;;18.13;12.23;;;5.30;1.00;;;;;;5070352;28;20198;-71
2022/04/04 08:21:47;;;;;;;18.00;12.87;;;5.50;1.00;;;;;;5070182;28;20593;-70
2022/04/04 08:24:14;;;;;;;15.60;12.53;;;5.40;1.00;;;;;;5070392;28;20206;-69
2022/04/04 08:26:42;;;;;;;13.50;10.80;;;5.60;1.00;;;;;;5070266;28;20202;-72
2022/04/04 08:29:09;;;;;;;18.00;12.33;;;5.70;1.00;;;;;;5066862;28;20262;-70
2022/04/04 08:31:37;;;;;;;16.67;11.60;;;5.90;1.00;;;;;;5070832;28;20332;-72
2022/04/04 08:34:05;;;;;;;16.23;12.00;;;5.90;1.00;;;;;;5070801;28;20281;-72
2022/04/04 08:36:32;;;;;;;14.83;12.13;;;6.30;1.00;;;;;;5070026;28;20253;-72
2022/04/04 08:38:59;;;;;;;15.70;12.07;;;7.40;1.00;;;;;;5070662;28;20263;-69
2022/04/04 08:41:29;;;;;;;12.43;10.50;;;7.60;1.00;;;;;;5070038;28;20206;-69
2022/04/04 08:43:59;;;;;;;14.37;10.30;;;7.00;1.00;;;;;;5070516;28;20311;-70
2022/04/04 08:46:27;;;;;;;13.27;11.17;;;6.50;1.00;;;;;;5069885;28;20585;-69
2022/04/04 08:48:57;;;;;;;11.27;9.33;;;6.70;1.00;;;;;;5070395;28;20202;-72
2022/04/04 08:51:26;;;;;;;13.53;9.00;;;6.80;1.00;;;;;;5069607;28;20234;-72
2022/04/04 08:53:54;;;;;;;8.33;7.13;;;7.00;1.00;;;;;;5070397;28;20202;-71
2022/04/04 08:56:23;;;;;;;10.63;7.43;;;7.20;1.00;;;;;;5069998;28;20255;-70
2022/04/04 08:58:51;;;;;;;10.93;8.90;;;7.10;1.00;;;;;;5069973;28;20323;-72
2022/04/04 09:01:18;;;;;;;11.40;7.60;;;7.60;1.00;;;;;;5069899;28;20304;-72
2022/04/04 09:03:45;;;;;;;9.03;7.97;;;7.60;1.00;;;;;;5070256;28;20299;-70
2022/04/04 09:06:12;;;;;;;9.63;7.23;;;7.60;1.00;;;;;;5069709;28;20206;-73
2022/04/04 09:08:48;;;;;;;10.20;8.27;;;7.40;1.00;;;;;;5070196;28;20210;-72
2022/04/04 09:11:15;;;;;;;11.00;7.60;;;7.70;1.00;;;;;;5069531;28;20226;-75
2022/04/04 09:13:43;;;;;;;8.47;7.10;;;7.60;1.00;;;;;;5070123;28;20202;-73
2022/04/04 09:16:10;;;;;;;8.03;6.67;;;7.20;1.00;;;;;;5070079;28;20665;-73
2022/04/04 09:18:49;;;;;;;13.13;9.13;;;7.00;1.00;;;;;;5072271;28;20212;-75
2022/04/04 09:21:35;;;;;;;10.13;7.53;;;7.60;1.00;;;;;;5073235;28;20287;-74
2022/04/04 09:24:10;;;;;;;7.70;6.53;;;7.90;1.00;;;;;;5073671;28;20202;-71
2022/04/04 09:26:39;;;;;;;9.43;7.77;;;8.70;1.00;;;;;;5074073;28;20230;-74
2022/04/04 09:29:09;;;;;;;8.97;6.80;;;9.60;1.00;;;;;;5074090;28;20248;-74
2022/04/04 09:31:37;;;;;;;9.03;7.67;;;9.30;1.00;;;;;;5073918;28;20259;-74
2022/04/04 09:34:05;;;;;;;11.00;7.97;;;9.70;1.00;;;;;;5073603;28;20198;-73
2022/04/04 09:36:33;;;;;;;8.23;7.30;;;9.40;1.00;;;;;;5073170;28;20202;-70
2022/04/04 09:39:09;;;;;;;9.47;6.87;;;9.70;1.00;;;;;;5073415;28;20206;-70
2022/04/04 09:41:38;;;;;;;9.27;7.77;;;9.20;1.00;;;;;;5073633;28;20206;-73
2022/04/04 09:44:06;;;;;;;8.37;7.53;;;9.90;1.00;;;;;;5073637;28;20297;-71
2022/04/04 09:46:37;;;;;;;8.37;7.47;;;10.30;1.00;;;;;;5072840;28;20297;-71
2022/04/04 09:49:06;;;;;;;7.83;7.03;;;10.70;1.00;;;;;;5073368;28;20673;-71
2022/04/04 09:51:41;;;;;;;9.37;6.90;;;9.00;1.00;;;;;;5073250;28;20226;-70
2022/04/04 09:54:12;;;;;;;6.93;6.23;;;9.50;1.00;;;;;;5073621;28;20201;-71
2022/04/04 09:56:40;;;;;;;7.30;5.97;;;12.00;1.00;;;;;;5072747;28;20203;-71
2022/04/04 09:59:07;;;;;;;7.20;6.17;;;13.20;1.00;;;;;;5073315;28;20198;-71
2022/04/04 10:01:34;;;;;;;7.63;6.40;;;11.90;1.00;;;;;;5072878;28;20263;-74
2022/04/04 10:04:03;;;;;;;9.13;7.07;;;10.50;1.00;;;;;;5072798;28;20206;-70
2022/04/04 10:06:31;;;;;;;7.43;6.63;;;10.60;1.00;;;;;;5072846;28;20205;-73
2022/04/04 10:09:00;;;;;;;8.13;6.10;;;10.50;1.00;;;;;;5072921;28;20206;-72
2022/04/04 10:11:30;;;;;;;7.83;6.87;;;12.50;1.00;;;;;;5072304;28;20287;-71
2022/04/04 10:14:00;;;;;;;7.67;6.40;;;13.60;1.00;;;;;;5072653;28;20205;-70
2022/04/04 10:16:27;;;;;;;7.73;6.13;;;13.40;1.00;;;;;;5072269;28;20343;-71
2022/04/04 10:18:57;;;;;;;7.40;6.43;;;11.90;1.00;;;;;;5072531;28;20206;-74
2022/04/04 10:21:25;;;;;;;7.70;6.33;;;11.30;1.00;;;;;;5072174;28;20209;-70
2022/04/04 10:23:55;;;;;;;7.37;6.00;;;11.40;1.00;;;;;;5072494;28;20205;-72
2022/04/04 10:26:28;;;;;;;7.97;6.43;;;12.80;1.00;;;;;;5072122;28;20255;-71
2022/04/04 10:29:13;;;;;;;6.63;5.67;;;14.30;1.00;;;;;;5065692;28;20202;-70
2022/04/04 10:31:46;;;;;;;6.93;5.90;;;17.90;1.00;;;;;;5065446;28;20244;-71
2022/04/04 10:34:15;;;;;;;7.20;5.63;;;18.70;1.00;;;;;;5071685;28;20214;-71
2022/04/04 10:36:55;;;;;;;7.77;6.63;;;15.50;1.00;;;;;;5057828;28;20259;-71
2022/04/04 10:39:37;;;;;;;8.30;6.93;;;11.60;1.00;;;;;;5062885;28;20292;-71
2022/04/04 10:42:26;;;;;;;6.47;5.17;;;10.00;1.00;;;;;;5067564;28;20685;-71
2022/04/04 10:45:03;;;;;;;7.87;5.87;;;8.80;1.00;;;;;;5071738;28;20268;-71
2022/04/04 10:47:31;;;;;;;8.40;6.20;;;9.50;1.00;;;;;;5071141;28;20994;-71
2022/04/04 10:50:16;;;;;;;8.27;5.40;;;9.90;1.00;;;;;;5071600;28;20941;-71
2022/04/04 10:52:44;;;;;;;6.43;5.83;;;10.10;1.00;;;;;;5071542;28;20234;-72
2022/04/04 10:55:54;;;;;;;6.90;5.97;;;9.90;1.00;;;;;;5069783;28;20206;-71
2022/04/04 10:58:25;;;;;;;6.43;5.83;;;9.40;1.00;;;;;;5070118;28;20265;-71
2022/04/04 11:01:07;;;;;;;8.27;5.73;;;10.60;1.00;;;;;;5070018;28;20285;-71
2022/04/04 11:03:37;;;;;;;5.87;5.27;;;11.00;1.00;;;;;;5071275;28;20202;-70
2022/04/04 11:09:11;;;;;;;6.73;5.53;;;10.10;1.00;;;;;;5071542;28;20193;-71
2022/04/04 11:11:43;;;;;;;6.57;5.90;;;10.10;1.00;;;;;;5071719;28;20198;-70
2022/04/04 11:14:12;;;;;;;7.03;5.80;;;9.10;1.00;;;;;;5071343;28;20206;-70
2022/04/04 11:17:41;;;;;;;7.20;6.27;;;9.10;1.00;;;;;;5071240;28;20625;-70
2022/04/04 11:20:21;;;;;;;7.10;6.40;;;9.10;1.00;;;;;;5071507;28;20237;-70
2022/04/04 11:22:55;;;;;;;7.27;5.37;;;8.40;1.00;;;;;;5071360;28;20197;-70
2022/04/04 11:25:26;;;;;;;7.23;5.30;;;8.40;1.00;;;;;;5070891;28;20210;-69
2022/04/04 11:27:54;;;;;;;11.90;5.97;;;8.50;1.00;;;;;;5071313;28;20202;-70
2022/04/04 11:30:24;;;;;;;6.13;5.50;;;8.80;1.00;;;;;;5070780;28;20202;-70
2022/04/04 11:32:54;;;;;;;6.20;5.60;;;8.90;1.00;;;;;;5071107;28;20236;-71
2022/04/04 11:35:23;;;;;;;7.40;4.87;;;9.00;1.00;;;;;;5070680;28;20735;-70
2022/04/04 11:37:51;;;;;;;6.60;5.87;;;8.90;1.00;;;;;;5071340;28;20205;-70
2022/04/04 11:40:23;;;;;;;6.83;5.73;;;9.30;1.00;;;;;;5070483;28;20280;-71
2022/04/04 11:42:51;;;;;;;5.90;4.90;;;9.60;1.00;;;;;;5071067;28;20263;-71
2022/04/04 11:45:20;;;;;;;9.60;5.60;;;9.80;1.00;;;;;;5070697;28;20205;-70
2022/04/04 11:47:53;;;;;;;4.63;4.23;;;10.40;1.00;;;;;;5070750;28;20557;-71
2022/04/04 11:50:23;;;;;;;6.33;5.03;;;10.50;1.00;;;;;;5070640;28;20202;-71
2022/04/04 11:52:52;;;;;;;5.87;5.27;;;10.80;1.00;;;;;;5070828;28;20640;-70
2022/04/04 11:55:21;;;;;;;5.13;4.63;;;10.60;1.00;;;;;;5070891;28;20198;-71
2022/04/04 11:57:49;;;;;;;5.50;4.47;;;11.10;1.00;;;;;;5070761;28;20693;-71
2022/04/04 12:00:26;;;;;;;6.53;5.37;;;10.90;1.00;;;;;;5069512;28;20252;-70
2022/04/04 12:02:56;;;;;;;6.13;4.70;;;10.70;1.00;;;;;;5064348;28;20202;-69
2022/04/04 12:05:24;;;;;;;7.27;4.97;;;11.30;1.00;;;;;;5060852;28;20750;-69
2022/04/04 12:07:52;;;;;;;8.20;5.50;;;10.80;1.00;;;;;;5065285;28;20210;-71
2022/04/04 12:10:31;;;;;;;6.07;5.47;;;10.50;1.00;;;;;;5070163;28;20216;-70
2022/04/04 12:13:02;;;;;;;5.93;5.07;;;9.80;1.00;;;;;;5070024;28;20229;-70
2022/04/04 12:15:31;;;;;;;5.43;4.43;;;9.90;1.00;;;;;;5070093;28;20267;-69
2022/04/04 12:18:00;;;;;;;5.60;4.70;;;9.60;1.00;;;;;;5070208;28;20589;-69
2022/04/04 12:20:36;;;;;;;6.10;4.40;;;9.40;1.00;;;;;;5069020;28;20206;-69
2022/04/04 12:25:48;;;;;;;6.60;4.83;;;8.70;1.00;;;;;;5070310;28;20213;-69
2022/04/04 12:28:25;;;;;;;4.37;3.97;;;8.90;1.00;;;;;;5069925;28;20202;-68
2022/04/04 12:30:52;;;;;;;7.40;5.23;;;9.20;1.00;;;;;;5066808;28;20255;-68
2022/04/04 12:33:21;;;;;;;6.03;4.80;;;9.50;1.00;;;;;;5069767;28;20674;-69
2022/04/04 12:35:50;;;;;;;4.80;4.30;;;10.30;1.00;;;;;;5070028;28;20289;-69
2022/04/04 12:38:28;;;;;;;7.93;5.80;;;10.80;1.00;;;;;;5070195;28;20210;-69
2022/04/04 12:41:13;;;;;;;7.63;5.30;;;11.00;1.00;;;;;;5070181;28;20210;-69
2022/04/04 12:43:42;;;;;;;6.40;5.20;;;10.70;1.00;;;;;;5070106;28;20293;-70
2022/04/04 12:46:23;;;;;;;5.37;4.87;;;11.20;1.00;;;;;;5070192;28;20206;-70
2022/04/04 12:48:51;;;;;;;8.03;4.60;;;11.40;1.00;;;;;;5070269;28;20217;-70
2022/04/04 12:51:30;;;;;;;6.13;5.07;;;11.80;1.00;;;;;;5069750;28;20205;-71
2022/04/04 12:54:00;;;;;;;5.73;4.87;;;11.90;1.00;;;;;;5073944;28;20233;-70
2022/04/04 12:56:27;;;;;;;6.30;5.60;;;11.30;1.00;;;;;;5073367;28;20289;-70
2022/04/04 12:59:08;;;;;;;5.77;5.27;;;10.40;1.00;;;;;;5073181;28;20263;-69
2022/04/04 13:01:35;;;;;;;8.03;4.80;;;10.00;1.00;;;;;;5060842;28;20195;-69
2022/04/04 13:04:20;;;;;;;5.57;4.63;;;10.30;1.00;;;;;;5073630;28;20220;-69
2022/04/04 13:06:47;;;;;;;5.77;4.73;;;10.10;1.00;;;;;;5073808;28;20198;-69
2022/04/04 13:09:23;;;;;;;7.57;6.20;;;9.60;1.00;;;;;;5073005;28;20687;-69